sensor_id;sensor_type;location;lat;lon;timestamp;P1;durP1;ratioP1;P2;durP2;ratioP2
13951;SDS011;39535;52.192;9.886;2022-08-03T00:00:47;2.80;;;2.60;;
13951;SDS011;39535;52.192;9.886;2022-08-03T00:03:14;3.20;;;2.50;;
13951;SDS011;39535;52.192;9.886;2022-08-03T00:05:40;3.00;;;2.60;;
13951;SDS011;39535;52.192;9.886;2022-08-03T00:08:08;2.87;;;2.50;;
13951;SDS011;39535;52.192;9.886;2022-08-03T00:10:38;2.50;;;2.30;;
13951;SDS011;39535;52.192;9.886;2022-08-03T00:13:04;3.37;;;2.57;;
13951;SDS011;39535;52.192;9.886;2022-08-03T00:15:31;2.67;;;2.47;;
13951;SDS011;39535;52.192;9.886;2022-08-03T00:17:57;6.43;;;2.73;;
13951;SDS011;39535;52.192;9.886;2022-08-03T00:20:24;3.80;;;2.50;;
13951;SDS011;39535;52.192;9.886;2022-08-03T00:22:50;3.27;;;2.70;;
13951;SDS011;39535;52.192;9.886;2022-08-03T00:25:18;2.57;;;2.43;;
13951;SDS011;39535;52.192;9.886;2022-08-03T00:27:46;2.17;;;2.07;;
13951;SDS011;39535;52.192;9.886;2022-08-03T00:30:12;3.20;;;2.60;;
13951;SDS011;39535;52.192;9.886;2022-08-03T00:32:40;3.23;;;2.10;;
13951;SDS011;39535;52.192;9.886;2022-08-03T00:35:07;2.67;;;2.47;;
13951;SDS011;39535;52.192;9.886;2022-08-03T00:37:33;2.80;;;2.60;;
13951;SDS011;39535;52.192;9.886;2022-08-03T00:40:00;2.33;;;2.23;;
13951;SDS011;39535;52.192;9.886;2022-08-03T00:42:27;2.90;;;2.70;;
13951;SDS011;39535;52.192;9.886;2022-08-03T00:44:54;3.40;;;2.60;;
13951;SDS011;39535;52.192;9.886;2022-08-03T00:47:20;2.43;;;2.33;;
13951;SDS011;39535;52.192;9.886;2022-08-03T00:49:46;2.20;;;2.10;;
13951;SDS011;39535;52.192;9.886;2022-08-03T00:52:13;2.80;;;2.60;;
13951;SDS011;39535;52.192;9.886;2022-08-03T00:54:41;2.60;;;2.50;;
13951;SDS011;39535;52.192;9.886;2022-08-03T00:57:08;2.53;;;2.40;;
13951;SDS011;39535;52.192;9.886;2022-08-03T00:59:35;2.53;;;2.43;;
13951;SDS011;39535;52.192;9.886;2022-08-03T01:02:03;2.47;;;2.27;;
13951;SDS011;39535;52.192;9.886;2022-08-03T01:04:30;2.90;;;2.70;;
13951;SDS011;39535;52.192;9.886;2022-08-03T01:06:59;3.17;;;2.50;;
13951;SDS011;39535;52.192;9.886;2022-08-03T01:09:30;2.30;;;2.10;;
13951;SDS011;39535;52.192;9.886;2022-08-03T01:12:09;2.30;;;2.20;;
13951;SDS011;39535;52.192;9.886;2022-08-03T01:14:45;2.97;;;2.60;;
13951;SDS011;39535;52.192;9.886;2022-08-03T01:17:19;2.73;;;2.53;;
13951;SDS011;39535;52.192;9.886;2022-08-03T01:19:52;3.13;;;2.50;;
13951;SDS011;39535;52.192;9.886;2022-08-03T01:22:32;2.70;;;2.60;;
13951;SDS011;39535;52.192;9.886;2022-08-03T01:25:13;2.63;;;2.40;;
13951;SDS011;39535;52.192;9.886;2022-08-03T01:27:50;4.03;;;2.70;;
13951;SDS011;39535;52.192;9.886;2022-08-03T01:30:23;3.00;;;2.80;;
13951;SDS011;39535;52.192;9.886;2022-08-03T01:32:55;2.80;;;2.70;;
13951;SDS011;39535;52.192;9.886;2022-08-03T01:35:25;3.03;;;2.73;;
13951;SDS011;39535;52.192;9.886;2022-08-03T01:37:57;2.60;;;2.50;;
13951;SDS011;39535;52.192;9.886;2022-08-03T01:40:28;2.83;;;2.63;;
13951;SDS011;39535;52.192;9.886;2022-08-03T01:42:57;2.77;;;2.60;;
13951;SDS011;39535;52.192;9.886;2022-08-03T01:45:28;3.17;;;2.83;;
13951;SDS011;39535;52.192;9.886;2022-08-03T01:47:56;2.63;;;2.50;;
13951;SDS011;39535;52.192;9.886;2022-08-03T01:50:25;3.47;;;2.63;;
13951;SDS011;39535;52.192;9.886;2022-08-03T01:52:53;2.80;;;2.50;;
13951;SDS011;39535;52.192;9.886;2022-08-03T01:55:23;2.57;;;2.30;;
13951;SDS011;39535;52.192;9.886;2022-08-03T01:57:52;2.47;;;2.27;;
13951;SDS011;39535;52.192;9.886;2022-08-03T02:00:22;2.30;;;2.20;;
13951;SDS011;39535;52.192;9.886;2022-08-03T02:02:51;3.43;;;3.13;;
13951;SDS011;39535;52.192;9.886;2022-08-03T02:05:19;2.70;;;2.50;;
13951;SDS011;39535;52.192;9.886;2022-08-03T02:07:46;2.70;;;2.50;;
13951;SDS011;39535;52.192;9.886;2022-08-03T02:10:14;3.27;;;3.00;;
13951;SDS011;39535;52.192;9.886;2022-08-03T02:12:45;2.53;;;2.43;;
13951;SDS011;39535;52.192;9.886;2022-08-03T02:15:14;2.47;;;2.37;;
13951;SDS011;39535;52.192;9.886;2022-08-03T02:17:45;3.13;;;2.90;;
13951;SDS011;39535;52.192;9.886;2022-08-03T02:20:13;2.50;;;2.30;;
13951;SDS011;39535;52.192;9.886;2022-08-03T02:22:42;3.00;;;2.80;;
13951;SDS011;39535;52.192;9.886;2022-08-03T02:25:10;2.83;;;2.73;;
13951;SDS011;39535;52.192;9.886;2022-08-03T02:27:42;2.50;;;2.40;;
13951;SDS011;39535;52.192;9.886;2022-08-03T02:30:15;2.63;;;2.53;;
13951;SDS011;39535;52.192;9.886;2022-08-03T02:32:43;2.47;;;2.30;;
13951;SDS011;39535;52.192;9.886;2022-08-03T02:35:17;2.43;;;2.23;;
13951;SDS011;39535;52.192;9.886;2022-08-03T02:37:49;3.27;;;2.93;;
13951;SDS011;39535;52.192;9.886;2022-08-03T02:40:18;2.60;;;2.50;;
13951;SDS011;39535;52.192;9.886;2022-08-03T02:42:46;2.50;;;2.27;;
13951;SDS011;39535;52.192;9.886;2022-08-03T02:45:16;2.70;;;2.50;;
13951;SDS011;39535;52.192;9.886;2022-08-03T02:47:45;2.90;;;2.70;;
13951;SDS011;39535;52.192;9.886;2022-08-03T02:50:15;2.27;;;2.17;;
13951;SDS011;39535;52.192;9.886;2022-08-03T02:52:43;2.50;;;2.30;;
13951;SDS011;39535;52.192;9.886;2022-08-03T02:55:13;2.57;;;2.37;;
13951;SDS011;39535;52.192;9.886;2022-08-03T02:57:43;2.53;;;2.40;;
13951;SDS011;39535;52.192;9.886;2022-08-03T03:00:11;2.70;;;2.53;;
13951;SDS011;39535;52.192;9.886;2022-08-03T03:02:39;2.60;;;2.40;;
13951;SDS011;39535;52.192;9.886;2022-08-03T03:05:07;2.70;;;2.60;;
13951;SDS011;39535;52.192;9.886;2022-08-03T03:07:36;2.77;;;2.60;;
13951;SDS011;39535;52.192;9.886;2022-08-03T03:10:07;3.93;;;2.50;;
13951;SDS011;39535;52.192;9.886;2022-08-03T03:12:34;2.60;;;2.40;;
13951;SDS011;39535;52.192;9.886;2022-08-03T03:15:02;2.77;;;2.67;;
13951;SDS011;39535;52.192;9.886;2022-08-03T03:17:30;2.80;;;2.60;;
13951;SDS011;39535;52.192;9.886;2022-08-03T03:19:58;2.80;;;2.60;;
13951;SDS011;39535;52.192;9.886;2022-08-03T03:22:25;2.43;;;2.30;;
13951;SDS011;39535;52.192;9.886;2022-08-03T03:24:53;2.50;;;2.33;;
13951;SDS011;39535;52.192;9.886;2022-08-03T03:27:21;2.50;;;2.40;;
13951;SDS011;39535;52.192;9.886;2022-08-03T03:29:48;2.40;;;2.20;;
13951;SDS011;39535;52.192;9.886;2022-08-03T03:32:15;2.80;;;2.60;;
13951;SDS011;39535;52.192;9.886;2022-08-03T03:34:41;2.80;;;2.60;;
13951;SDS011;39535;52.192;9.886;2022-08-03T03:37:08;3.17;;;2.93;;
13951;SDS011;39535;52.192;9.886;2022-08-03T03:39:35;2.43;;;2.33;;
13951;SDS011;39535;52.192;9.886;2022-08-03T03:42:02;2.57;;;2.47;;
13951;SDS011;39535;52.192;9.886;2022-08-03T03:44:30;3.20;;;3.00;;
13951;SDS011;39535;52.192;9.886;2022-08-03T03:46:57;3.80;;;2.30;;
13951;SDS011;39535;52.192;9.886;2022-08-03T03:49:23;2.60;;;2.40;;
13951;SDS011;39535;52.192;9.886;2022-08-03T03:51:51;2.60;;;2.40;;
13951;SDS011;39535;52.192;9.886;2022-08-03T03:54:18;2.30;;;2.20;;
13951;SDS011;39535;52.192;9.886;2022-08-03T03:56:47;3.13;;;2.70;;
13951;SDS011;39535;52.192;9.886;2022-08-03T03:59:13;2.50;;;2.30;;
13951;SDS011;39535;52.192;9.886;2022-08-03T04:01:41;3.07;;;2.87;;
13951;SDS011;39535;52.192;9.886;2022-08-03T04:04:07;2.73;;;2.63;;
13951;SDS011;39535;52.192;9.886;2022-08-03T04:06:51;2.53;;;2.40;;
13951;SDS011;39535;52.192;9.886;2022-08-03T04:09:35;4.53;;;3.00;;
13951;SDS011;39535;52.192;9.886;2022-08-03T04:12:23;4.50;;;2.63;;
13951;SDS011;39535;52.192;9.886;2022-08-03T04:14:54;2.50;;;2.40;;
13951;SDS011;39535;52.192;9.886;2022-08-03T04:17:24;2.70;;;2.60;;
13951;SDS011;39535;52.192;9.886;2022-08-03T04:19:53;4.93;;;3.33;;
13951;SDS011;39535;52.192;9.886;2022-08-03T04:22:21;3.23;;;2.87;;
13951;SDS011;39535;52.192;9.886;2022-08-03T04:24:52;3.47;;;2.63;;
13951;SDS011;39535;52.192;9.886;2022-08-03T04:27:24;3.13;;;2.90;;
13951;SDS011;39535;52.192;9.886;2022-08-03T04:29:56;3.30;;;3.10;;
13951;SDS011;39535;52.192;9.886;2022-08-03T04:32:26;3.40;;;3.10;;
13951;SDS011;39535;52.192;9.886;2022-08-03T04:34:54;2.90;;;2.70;;
13951;SDS011;39535;52.192;9.886;2022-08-03T04:37:23;5.30;;;2.90;;
13951;SDS011;39535;52.192;9.886;2022-08-03T04:39:58;3.20;;;2.60;;
13951;SDS011;39535;52.192;9.886;2022-08-03T04:42:27;2.70;;;2.50;;
13951;SDS011;39535;52.192;9.886;2022-08-03T04:44:56;3.47;;;3.17;;
13951;SDS011;39535;52.192;9.886;2022-08-03T04:47:23;2.57;;;2.37;;
13951;SDS011;39535;52.192;9.886;2022-08-03T04:49:51;2.80;;;2.70;;
13951;SDS011;39535;52.192;9.886;2022-08-03T04:52:18;2.40;;;2.30;;
13951;SDS011;39535;52.192;9.886;2022-08-03T04:54:44;2.53;;;2.33;;
13951;SDS011;39535;52.192;9.886;2022-08-03T04:57:12;3.40;;;2.40;;
13951;SDS011;39535;52.192;9.886;2022-08-03T04:59:38;2.80;;;2.60;;
13951;SDS011;39535;52.192;9.886;2022-08-03T05:02:04;2.93;;;2.63;;
13951;SDS011;39535;52.192;9.886;2022-08-03T05:04:31;2.50;;;2.20;;
13951;SDS011;39535;52.192;9.886;2022-08-03T05:06:59;2.90;;;2.70;;
13951;SDS011;39535;52.192;9.886;2022-08-03T05:09:25;3.50;;;1.93;;
13951;SDS011;39535;52.192;9.886;2022-08-03T05:11:52;3.40;;;3.10;;
13951;SDS011;39535;52.192;9.886;2022-08-03T05:14:19;3.43;;;3.17;;
13951;SDS011;39535;52.192;9.886;2022-08-03T05:16:46;3.93;;;3.63;;
13951;SDS011;39535;52.192;9.886;2022-08-03T05:19:12;3.90;;;3.70;;
13951;SDS011;39535;52.192;9.886;2022-08-03T05:21:38;4.53;;;4.10;;
13951;SDS011;39535;52.192;9.886;2022-08-03T05:24:06;4.50;;;4.20;;
13951;SDS011;39535;52.192;9.886;2022-08-03T05:26:32;4.67;;;4.33;;
13951;SDS011;39535;52.192;9.886;2022-08-03T05:28:59;5.73;;;4.60;;
13951;SDS011;39535;52.192;9.886;2022-08-03T05:31:25;4.40;;;4.10;;
13951;SDS011;39535;52.192;9.886;2022-08-03T05:33:52;5.30;;;3.80;;
13951;SDS011;39535;52.192;9.886;2022-08-03T05:36:18;3.97;;;3.77;;
13951;SDS011;39535;52.192;9.886;2022-08-03T05:38:45;3.63;;;3.33;;
13951;SDS011;39535;52.192;9.886;2022-08-03T05:41:12;3.33;;;3.13;;
13951;SDS011;39535;52.192;9.886;2022-08-03T05:43:39;3.60;;;3.40;;
13951;SDS011;39535;52.192;9.886;2022-08-03T05:46:05;3.33;;;3.13;;
13951;SDS011;39535;52.192;9.886;2022-08-03T05:48:32;4.17;;;3.20;;
13951;SDS011;39535;52.192;9.886;2022-08-03T05:50:58;3.60;;;3.17;;
13951;SDS011;39535;52.192;9.886;2022-08-03T05:53:24;3.10;;;2.90;;
13951;SDS011;39535;52.192;9.886;2022-08-03T05:55:51;3.80;;;3.53;;
13951;SDS011;39535;52.192;9.886;2022-08-03T05:58:21;5.10;;;3.20;;
13951;SDS011;39535;52.192;9.886;2022-08-03T06:00:47;3.60;;;3.40;;
13951;SDS011;39535;52.192;9.886;2022-08-03T06:03:13;3.90;;;3.57;;
13951;SDS011;39535;52.192;9.886;2022-08-03T06:05:40;3.37;;;3.10;;
13951;SDS011;39535;52.192;9.886;2022-08-03T06:08:06;3.87;;;3.37;;
13951;SDS011;39535;52.192;9.886;2022-08-03T06:10:32;3.63;;;3.23;;
13951;SDS011;39535;52.192;9.886;2022-08-03T06:12:59;3.87;;;3.57;;
13951;SDS011;39535;52.192;9.886;2022-08-03T06:15:27;3.50;;;3.30;;
13951;SDS011;39535;52.192;9.886;2022-08-03T06:17:53;4.47;;;3.63;;
13951;SDS011;39535;52.192;9.886;2022-08-03T06:20:21;3.40;;;3.20;;
13951;SDS011;39535;52.192;9.886;2022-08-03T06:22:47;3.57;;;3.27;;
13951;SDS011;39535;52.192;9.886;2022-08-03T06:25:14;3.13;;;2.97;;
13951;SDS011;39535;52.192;9.886;2022-08-03T06:27:40;3.93;;;3.63;;
13951;SDS011;39535;52.192;9.886;2022-08-03T06:30:08;3.40;;;3.10;;
13951;SDS011;39535;52.192;9.886;2022-08-03T06:32:36;3.10;;;2.90;;
13951;SDS011;39535;52.192;9.886;2022-08-03T06:35:04;2.80;;;2.60;;
13951;SDS011;39535;52.192;9.886;2022-08-03T06:37:31;2.93;;;2.63;;
13951;SDS011;39535;52.192;9.886;2022-08-03T06:39:57;2.73;;;2.63;;
13951;SDS011;39535;52.192;9.886;2022-08-03T06:42:23;4.10;;;2.97;;
13951;SDS011;39535;52.192;9.886;2022-08-03T06:44:50;2.77;;;2.60;;
13951;SDS011;39535;52.192;9.886;2022-08-03T06:47:16;2.90;;;2.70;;
13951;SDS011;39535;52.192;9.886;2022-08-03T06:49:44;2.80;;;2.70;;
13951;SDS011;39535;52.192;9.886;2022-08-03T06:52:10;2.67;;;2.47;;
13951;SDS011;39535;52.192;9.886;2022-08-03T06:54:36;3.63;;;2.57;;
13951;SDS011;39535;52.192;9.886;2022-08-03T06:57:03;3.53;;;2.47;;
13951;SDS011;39535;52.192;9.886;2022-08-03T06:59:32;2.57;;;2.47;;
13951;SDS011;39535;52.192;9.886;2022-08-03T07:01:58;3.13;;;2.83;;
13951;SDS011;39535;52.192;9.886;2022-08-03T07:04:25;2.73;;;2.53;;
13951;SDS011;39535;52.192;9.886;2022-08-03T07:06:52;2.60;;;2.40;;
13951;SDS011;39535;52.192;9.886;2022-08-03T07:09:19;2.73;;;2.53;;
13951;SDS011;39535;52.192;9.886;2022-08-03T07:11:45;2.57;;;2.37;;
13951;SDS011;39535;52.192;9.886;2022-08-03T07:14:11;2.80;;;2.60;;
13951;SDS011;39535;52.192;9.886;2022-08-03T07:16:38;2.60;;;2.50;;
13951;SDS011;39535;52.192;9.886;2022-08-03T07:19:04;2.87;;;2.67;;
13951;SDS011;39535;52.192;9.886;2022-08-03T07:21:31;2.60;;;2.40;;
13951;SDS011;39535;52.192;9.886;2022-08-03T07:23:59;3.43;;;2.57;;
13951;SDS011;39535;52.192;9.886;2022-08-03T07:26:28;2.50;;;2.40;;
13951;SDS011;39535;52.192;9.886;2022-08-03T07:28:54;2.47;;;2.27;;
13951;SDS011;39535;52.192;9.886;2022-08-03T07:31:21;3.20;;;2.90;;
13951;SDS011;39535;52.192;9.886;2022-08-03T07:33:47;4.50;;;2.77;;
13951;SDS011;39535;52.192;9.886;2022-08-03T07:36:14;2.37;;;1.97;;
13951;SDS011;39535;52.192;9.886;2022-08-03T07:38:40;2.20;;;2.10;;
13951;SDS011;39535;52.192;9.886;2022-08-03T07:41:08;2.30;;;2.20;;
13951;SDS011;39535;52.192;9.886;2022-08-03T07:43:34;2.50;;;2.40;;
13951;SDS011;39535;52.192;9.886;2022-08-03T07:46:00;2.30;;;2.20;;
13951;SDS011;39535;52.192;9.886;2022-08-03T07:48:27;2.10;;;2.00;;
13951;SDS011;39535;52.192;9.886;2022-08-03T07:50:53;2.83;;;2.17;;
13951;SDS011;39535;52.192;9.886;2022-08-03T07:53:19;2.00;;;1.90;;
13951;SDS011;39535;52.192;9.886;2022-08-03T07:55:46;2.20;;;2.10;;
13951;SDS011;39535;52.192;9.886;2022-08-03T07:58:13;2.23;;;2.13;;
13951;SDS011;39535;52.192;9.886;2022-08-03T08:00:42;2.03;;;1.93;;
13951;SDS011;39535;52.192;9.886;2022-08-03T08:03:09;1.80;;;1.70;;
13951;SDS011;39535;52.192;9.886;2022-08-03T08:05:36;2.00;;;1.90;;
13951;SDS011;39535;52.192;9.886;2022-08-03T08:08:02;2.97;;;2.40;;
13951;SDS011;39535;52.192;9.886;2022-08-03T08:10:29;2.23;;;2.13;;
13951;SDS011;39535;52.192;9.886;2022-08-03T08:12:56;2.00;;;1.90;;
13951;SDS011;39535;52.192;9.886;2022-08-03T08:15:24;2.27;;;2.07;;
13951;SDS011;39535;52.192;9.886;2022-08-03T08:17:51;2.00;;;1.90;;
13951;SDS011;39535;52.192;9.886;2022-08-03T08:20:19;2.43;;;2.23;;
13951;SDS011;39535;52.192;9.886;2022-08-03T08:22:47;2.00;;;1.90;;
13951;SDS011;39535;52.192;9.886;2022-08-03T08:25:13;2.73;;;2.40;;
13951;SDS011;39535;52.192;9.886;2022-08-03T08:27:41;2.20;;;2.10;;
13951;SDS011;39535;52.192;9.886;2022-08-03T08:30:08;1.83;;;1.73;;
13951;SDS011;39535;52.192;9.886;2022-08-03T08:32:37;2.60;;;2.13;;
13951;SDS011;39535;52.192;9.886;2022-08-03T08:35:03;3.07;;;2.40;;
13951;SDS011;39535;52.192;9.886;2022-08-03T08:37:31;2.40;;;2.20;;
13951;SDS011;39535;52.192;9.886;2022-08-03T08:39:57;3.17;;;2.13;;
13951;SDS011;39535;52.192;9.886;2022-08-03T08:42:24;1.97;;;1.70;;
13951;SDS011;39535;52.192;9.886;2022-08-03T08:44:51;2.87;;;1.93;;
13951;SDS011;39535;52.192;9.886;2022-08-03T08:47:18;2.40;;;2.23;;
13951;SDS011;39535;52.192;9.886;2022-08-03T08:49:46;5.33;;;2.50;;
13951;SDS011;39535;52.192;9.886;2022-08-03T08:52:17;2.37;;;2.17;;
13951;SDS011;39535;52.192;9.886;2022-08-03T08:54:47;1.67;;;1.57;;
13951;SDS011;39535;52.192;9.886;2022-08-03T08:57:14;3.50;;;2.07;;
13951;SDS011;39535;52.192;9.886;2022-08-03T08:59:42;3.20;;;2.00;;
13951;SDS011;39535;52.192;9.886;2022-08-03T09:02:09;2.63;;;1.33;;
13951;SDS011;39535;52.192;9.886;2022-08-03T09:04:36;2.37;;;1.67;;
13951;SDS011;39535;52.192;9.886;2022-08-03T09:07:05;3.27;;;2.10;;
13951;SDS011;39535;52.192;9.886;2022-08-03T09:09:32;1.90;;;1.50;;
13951;SDS011;39535;52.192;9.886;2022-08-03T09:11:58;2.93;;;1.60;;
13951;SDS011;39535;52.192;9.886;2022-08-03T09:14:24;2.43;;;1.43;;
13951;SDS011;39535;52.192;9.886;2022-08-03T09:16:54;1.60;;;1.50;;
13951;SDS011;39535;52.192;9.886;2022-08-03T09:19:23;2.83;;;1.37;;
13951;SDS011;39535;52.192;9.886;2022-08-03T09:21:58;2.77;;;2.10;;
13951;SDS011;39535;52.192;9.886;2022-08-03T09:24:34;2.13;;;2.03;;
13951;SDS011;39535;52.192;9.886;2022-08-03T09:27:03;2.57;;;2.23;;
13951;SDS011;39535;52.192;9.886;2022-08-03T09:29:31;2.40;;;2.30;;
13951;SDS011;39535;52.192;9.886;2022-08-03T09:31:59;2.63;;;2.43;;
13951;SDS011;39535;52.192;9.886;2022-08-03T09:34:27;2.10;;;2.00;;
13951;SDS011;39535;52.192;9.886;2022-08-03T09:36:53;2.50;;;2.30;;
13951;SDS011;39535;52.192;9.886;2022-08-03T09:39:23;2.17;;;2.07;;
13951;SDS011;39535;52.192;9.886;2022-08-03T09:42:02;2.37;;;2.20;;
13951;SDS011;39535;52.192;9.886;2022-08-03T09:44:32;2.50;;;2.30;;
13951;SDS011;39535;52.192;9.886;2022-08-03T09:46:59;2.57;;;2.47;;
13951;SDS011;39535;52.192;9.886;2022-08-03T09:49:25;2.87;;;2.67;;
13951;SDS011;39535;52.192;9.886;2022-08-03T09:51:52;2.87;;;2.40;;
13951;SDS011;39535;52.192;9.886;2022-08-03T09:54:27;2.97;;;2.73;;
13951;SDS011;39535;52.192;9.886;2022-08-03T09:56:54;3.10;;;2.90;;
13951;SDS011;39535;52.192;9.886;2022-08-03T09:59:24;5.73;;;2.43;;
13951;SDS011;39535;52.192;9.886;2022-08-03T10:01:52;2.90;;;2.73;;
13951;SDS011;39535;52.192;9.886;2022-08-03T10:04:19;3.13;;;2.83;;
13951;SDS011;39535;52.192;9.886;2022-08-03T10:07:00;2.63;;;2.30;;
13951;SDS011;39535;52.192;9.886;2022-08-03T10:09:30;2.70;;;2.50;;
13951;SDS011;39535;52.192;9.886;2022-08-03T10:11:56;2.00;;;1.90;;
13951;SDS011;39535;52.192;9.886;2022-08-03T10:14:31;2.20;;;2.10;;
13951;SDS011;39535;52.192;9.886;2022-08-03T10:16:58;2.47;;;2.23;;
13951;SDS011;39535;52.192;9.886;2022-08-03T10:19:25;2.43;;;2.23;;
13951;SDS011;39535;52.192;9.886;2022-08-03T10:21:53;2.60;;;2.40;;
13951;SDS011;39535;52.192;9.886;2022-08-03T10:24:23;2.80;;;2.60;;
13951;SDS011;39535;52.192;9.886;2022-08-03T10:26:55;2.50;;;2.30;;
13951;SDS011;39535;52.192;9.886;2022-08-03T10:29:27;2.10;;;2.00;;
13951;SDS011;39535;52.192;9.886;2022-08-03T10:31:55;4.40;;;2.33;;
13951;SDS011;39535;52.192;9.886;2022-08-03T10:34:24;2.40;;;2.30;;
13951;SDS011;39535;52.192;9.886;2022-08-03T10:36:52;2.10;;;2.00;;
13951;SDS011;39535;52.192;9.886;2022-08-03T10:39:24;2.30;;;2.20;;
13951;SDS011;39535;52.192;9.886;2022-08-03T10:41:55;2.27;;;2.17;;
13951;SDS011;39535;52.192;9.886;2022-08-03T10:44:23;2.60;;;2.47;;
13951;SDS011;39535;52.192;9.886;2022-08-03T10:46:53;2.50;;;2.40;;
13951;SDS011;39535;52.192;9.886;2022-08-03T10:49:21;2.67;;;2.47;;
13951;SDS011;39535;52.192;9.886;2022-08-03T10:51:49;3.27;;;2.20;;
13951;SDS011;39535;52.192;9.886;2022-08-03T10:57:43;5.80;;;2.30;;
13951;SDS011;39535;52.192;9.886;2022-08-03T11:00:11;2.30;;;2.20;;
13951;SDS011;39535;52.192;9.886;2022-08-03T11:05:31;2.13;;;2.03;;
13951;SDS011;39535;52.192;9.886;2022-08-03T11:10:52;2.90;;;2.70;;
13951;SDS011;39535;52.192;9.886;2022-08-03T11:13:21;2.93;;;2.73;;
13951;SDS011;39535;52.192;9.886;2022-08-03T11:15:49;2.70;;;2.60;;
13951;SDS011;39535;52.192;9.886;2022-08-03T11:18:19;2.83;;;2.67;;
13951;SDS011;39535;52.192;9.886;2022-08-03T11:20:46;2.63;;;2.43;;
13951;SDS011;39535;52.192;9.886;2022-08-03T11:23:14;2.47;;;2.37;;
13951;SDS011;39535;52.192;9.886;2022-08-03T11:28:39;2.87;;;2.40;;
13951;SDS011;39535;52.192;9.886;2022-08-03T11:34:20;2.90;;;2.80;;
13951;SDS011;39535;52.192;9.886;2022-08-03T11:39:50;3.17;;;2.87;;
13951;SDS011;39535;52.192;9.886;2022-08-03T11:42:39;2.60;;;2.50;;
13951;SDS011;39535;52.192;9.886;2022-08-03T11:45:10;2.50;;;2.40;;
13951;SDS011;39535;52.192;9.886;2022-08-03T11:47:37;2.90;;;2.70;;
13951;SDS011;39535;52.192;9.886;2022-08-03T11:50:05;2.30;;;2.20;;
13951;SDS011;39535;52.192;9.886;2022-08-03T11:52:33;2.77;;;2.57;;
13951;SDS011;39535;52.192;9.886;2022-08-03T11:55:01;2.50;;;2.30;;
13951;SDS011;39535;52.192;9.886;2022-08-03T11:57:33;4.50;;;2.40;;
13951;SDS011;39535;52.192;9.886;2022-08-03T12:00:00;2.57;;;2.47;;
13951;SDS011;39535;52.192;9.886;2022-08-03T12:02:28;4.13;;;2.50;;
13951;SDS011;39535;52.192;9.886;2022-08-03T12:04:56;2.90;;;2.70;;
13951;SDS011;39535;52.192;9.886;2022-08-03T12:07:25;2.90;;;2.70;;
13951;SDS011;39535;52.192;9.886;2022-08-03T12:10:05;2.77;;;2.67;;
13951;SDS011;39535;52.192;9.886;2022-08-03T12:12:32;2.67;;;2.50;;
13951;SDS011;39535;52.192;9.886;2022-08-03T12:14:58;2.60;;;2.37;;
13951;SDS011;39535;52.192;9.886;2022-08-03T12:17:32;3.00;;;2.60;;
13951;SDS011;39535;52.192;9.886;2022-08-03T12:19:59;3.53;;;2.70;;
13951;SDS011;39535;52.192;9.886;2022-08-03T12:22:31;2.63;;;2.53;;
13951;SDS011;39535;52.192;9.886;2022-08-03T12:24:58;2.93;;;2.60;;
13951;SDS011;39535;52.192;9.886;2022-08-03T12:27:25;2.50;;;2.40;;
13951;SDS011;39535;52.192;9.886;2022-08-03T12:29:53;2.33;;;2.23;;
13951;SDS011;39535;52.192;9.886;2022-08-03T12:32:20;3.13;;;2.93;;
13951;SDS011;39535;52.192;9.886;2022-08-03T12:34:49;2.50;;;2.40;;
13951;SDS011;39535;52.192;9.886;2022-08-03T12:37:17;3.07;;;2.60;;
13951;SDS011;39535;52.192;9.886;2022-08-03T12:39:48;2.80;;;2.60;;
13951;SDS011;39535;52.192;9.886;2022-08-03T12:42:15;2.80;;;2.70;;
13951;SDS011;39535;52.192;9.886;2022-08-03T12:44:41;3.00;;;2.70;;
13951;SDS011;39535;52.192;9.886;2022-08-03T12:47:09;3.03;;;2.70;;
13951;SDS011;39535;52.192;9.886;2022-08-03T12:49:46;2.80;;;2.60;;
13951;SDS011;39535;52.192;9.886;2022-08-03T12:52:15;2.80;;;2.67;;
13951;SDS011;39535;52.192;9.886;2022-08-03T12:54:42;2.67;;;2.57;;
13951;SDS011;39535;52.192;9.886;2022-08-03T12:57:20;2.87;;;2.67;;
13951;SDS011;39535;52.192;9.886;2022-08-03T12:59:46;2.63;;;2.43;;
13951;SDS011;39535;52.192;9.886;2022-08-03T13:02:13;4.63;;;3.20;;
13951;SDS011;39535;52.192;9.886;2022-08-03T13:04:41;2.90;;;2.70;;
13951;SDS011;39535;52.192;9.886;2022-08-03T13:07:09;2.90;;;2.80;;
13951;SDS011;39535;52.192;9.886;2022-08-03T13:09:43;2.57;;;2.37;;
13951;SDS011;39535;52.192;9.886;2022-08-03T13:12:12;2.53;;;2.43;;
13951;SDS011;39535;52.192;9.886;2022-08-03T13:14:39;2.60;;;2.40;;
13951;SDS011;39535;52.192;9.886;2022-08-03T13:17:06;2.70;;;2.60;;
13951;SDS011;39535;52.192;9.886;2022-08-03T13:19:33;2.50;;;2.30;;
13951;SDS011;39535;52.192;9.886;2022-08-03T13:22:00;2.73;;;2.53;;
13951;SDS011;39535;52.192;9.886;2022-08-03T13:24:35;2.97;;;2.70;;
13951;SDS011;39535;52.192;9.886;2022-08-03T13:27:03;2.33;;;2.23;;
13951;SDS011;39535;52.192;9.886;2022-08-03T13:29:31;2.50;;;2.33;;
13951;SDS011;39535;52.192;9.886;2022-08-03T13:31:57;3.43;;;2.63;;
13951;SDS011;39535;52.192;9.886;2022-08-03T13:34:24;2.73;;;2.53;;
13951;SDS011;39535;52.192;9.886;2022-08-03T13:36:56;3.00;;;2.77;;
13951;SDS011;39535;52.192;9.886;2022-08-03T13:39:26;3.00;;;2.80;;
13951;SDS011;39535;52.192;9.886;2022-08-03T13:41:52;2.53;;;2.43;;
13951;SDS011;39535;52.192;9.886;2022-08-03T13:44:20;2.87;;;2.67;;
13951;SDS011;39535;52.192;9.886;2022-08-03T13:46:47;2.73;;;2.63;;
13951;SDS011;39535;52.192;9.886;2022-08-03T13:49:13;2.47;;;2.27;;
13951;SDS011;39535;52.192;9.886;2022-08-03T13:51:40;2.80;;;2.70;;
13951;SDS011;39535;52.192;9.886;2022-08-03T13:54:07;2.70;;;2.50;;
13951;SDS011;39535;52.192;9.886;2022-08-03T13:56:33;3.00;;;2.80;;
13951;SDS011;39535;52.192;9.886;2022-08-03T13:59:00;3.00;;;2.80;;
13951;SDS011;39535;52.192;9.886;2022-08-03T14:01:27;2.60;;;2.50;;
13951;SDS011;39535;52.192;9.886;2022-08-03T14:03:54;2.60;;;2.50;;
13951;SDS011;39535;52.192;9.886;2022-08-03T14:06:22;2.90;;;2.70;;
13951;SDS011;39535;52.192;9.886;2022-08-03T14:08:49;2.70;;;2.50;;
13951;SDS011;39535;52.192;9.886;2022-08-03T14:11:16;2.70;;;2.30;;
13951;SDS011;39535;52.192;9.886;2022-08-03T14:13:43;2.53;;;2.43;;
13951;SDS011;39535;52.192;9.886;2022-08-03T14:16:10;2.37;;;2.27;;
13951;SDS011;39535;52.192;9.886;2022-08-03T14:18:38;2.90;;;2.70;;
13951;SDS011;39535;52.192;9.886;2022-08-03T14:21:06;2.73;;;2.53;;
13951;SDS011;39535;52.192;9.886;2022-08-03T14:23:32;2.30;;;2.20;;
13951;SDS011;39535;52.192;9.886;2022-08-03T14:26:00;2.80;;;2.60;;
13951;SDS011;39535;52.192;9.886;2022-08-03T14:28:26;2.70;;;2.23;;
13951;SDS011;39535;52.192;9.886;2022-08-03T14:30:54;2.60;;;2.43;;
13951;SDS011;39535;52.192;9.886;2022-08-03T14:33:21;5.13;;;2.57;;
13951;SDS011;39535;52.192;9.886;2022-08-03T14:35:49;2.40;;;2.30;;
13951;SDS011;39535;52.192;9.886;2022-08-03T14:38:17;2.50;;;2.30;;
13951;SDS011;39535;52.192;9.886;2022-08-03T14:40:43;2.70;;;2.60;;
13951;SDS011;39535;52.192;9.886;2022-08-03T14:43:10;2.53;;;2.43;;
13951;SDS011;39535;52.192;9.886;2022-08-03T14:45:37;2.70;;;2.53;;
13951;SDS011;39535;52.192;9.886;2022-08-03T14:48:03;2.53;;;2.43;;
13951;SDS011;39535;52.192;9.886;2022-08-03T14:50:30;3.33;;;2.87;;
13951;SDS011;39535;52.192;9.886;2022-08-03T14:52:58;2.60;;;2.50;;
13951;SDS011;39535;52.192;9.886;2022-08-03T14:55:24;2.40;;;2.30;;
13951;SDS011;39535;52.192;9.886;2022-08-03T14:57:51;2.67;;;2.47;;
13951;SDS011;39535;52.192;9.886;2022-08-03T15:00:18;2.87;;;2.57;;
13951;SDS011;39535;52.192;9.886;2022-08-03T15:02:44;2.50;;;2.40;;
13951;SDS011;39535;52.192;9.886;2022-08-03T15:05:11;2.50;;;2.30;;
13951;SDS011;39535;52.192;9.886;2022-08-03T15:07:39;3.30;;;2.63;;
13951;SDS011;39535;52.192;9.886;2022-08-03T15:10:07;2.27;;;2.07;;
13951;SDS011;39535;52.192;9.886;2022-08-03T15:12:33;2.53;;;2.43;;